Haymarket, VA (20169)

11:39 AM EDT on October 01, 2014 (GMT -0400)
Evergreen Country Club | Change Station
CLOSE
Current Station
Personal Weather Station
Location: Haymarket, VA
Elevation: 436 ft
Nearby Weather Stations

Elev 436 ft 38.88 °N, 77.66 °W | Updated 22 seconds ago

Overcast
Overcast
66.0 °F
Feels Like 66.0 °F
N
0.0
Wind Variable Wind from NNE
Gusts 0.0 mph

Today
High -- | Low -- °F
--% Chance of Precip.
Yesterday
High -- | Low -- °F
Precip. -- in
7:06 AM 6:53 PM
Waxing Crescent, 48% visible
Pressure 30.05 in
Visibility 10.0 miles
Clouds Few 1400 ft
Scattered Clouds 2100 ft
Overcast 2700 ft
Dew Point 64 °F
Humidity 94%
Rainfall 0.08 in
Snow Depth Not available.
UV 2 out of 12
Pollen 3.20 out of 12
Ozone Good
PM2.5 Good
Flu Activity Not available.
SPECI KIAD 011511Z 00000KT 10SM FEW014 SCT021 OVC027 19/16 A3005 RMK AO2

More Conditions Fewer Conditions

Pressure 30.05 in
Visibility 10.0 miles
Clouds Few 1400 ft
Scattered Clouds 2100 ft
Overcast 2700 ft
Dew Point 64 °F
Humidity 94%
Rainfall 0.08 in
Snow Depth Not available.
UV 2 out of 12
Pollen 3.20 out of 12
Ozone Good
PM2.5 Good
Flu Activity Not available.
SPECI KIAD 011511Z 00000KT 10SM FEW014 SCT021 OVC027 19/16 A3005 RMK AO2

More Conditions Fewer Conditions

10-Day Weather Forecast

Almanac

Astronomy

Oct. 01, 2014 Rise Set
Actual Time 7:06 AM EDT 6:53 PM EDT
Civil Twilight 6:39 AM EDT 7:19 PM EDT
Nautical Twilight 6:09 AM EDT 7:50 PM EDT
Astronomical Twilight 5:37 AM EDT 8:21 PM EDT
Moon 2:03 PM EDT No Moon Set
Length of Visible Light 12h 39m
Length of Day
11h 46m
Tomorrow will be 2m 30s shorter.
Waxing Crescent, 48% of the Moon is Illuminated
Today
Waxing Crescent
Oct 1
First Quarter
Oct 8
Full
Oct 15
Last Quarter
Oct 23
New

Today's Extremes

State Highs State Lows

Community

WunderPhotos

Upload Photos

1,757,967 photos uploaded!

Nearby

Air Quality

  Air Quality AQ Index Pollutant
Yesterday Good
PM10
Yesterday Good
OZONE
Current Good
PM2.5
Current Good
OZONE
Wednesday Moderate
PM2.5
Thursday Moderate
PM2.5
Friday Good
PM2.5

Snow Depth

Station Depth Elevation
No new snow has been reported.

Earthquake Activity

City Distance Mag. Time & Date
No recent earthquake activity has been reported nearby.
Minimum magnitude displayed is 2.5.

Coastal Water Temperatures

Place Temperature
Washington, DC 71.1 °F
Lewisetta, VA 72.0 °F
Solomons Island, MD 72.0 °F

Nearby Weather Stations